Time;durP1;ratioP1;P1;durP2;ratioP2;P2;SDS_P1;SDS_P2;PMS_P1;PMS_P2;Temp;Humidity;BMP_temperature;BMP_pressure;BME280_temperature;BME280_humidity;BME280_pressure;Samples;Min_cycle;Max_cycle;Signal;HPM_P1;HPM_P2
2024/01/05 00:01:26;;;;;;;14.23;6.37;;;;;;;;;;4998225;28;20484;-61
2024/01/05 00:03:52;;;;;;;17.73;6.83;;;;;;;;;;5000095;28;20504;-60
2024/01/05 00:06:17;;;;;;;19.10;7.10;;;;;;;;;;5017167;28;20469;-60
2024/01/05 00:08:42;;;;;;;18.38;6.60;;;;;;;;;;5018971;28;20494;-60
2024/01/05 00:11:07;;;;;;;16.77;6.87;;;;;;;;;;5017484;28;20415;-61
2024/01/05 00:13:33;;;;;;;20.80;8.43;;;;;;;;;;5018060;28;20731;-60
2024/01/05 00:15:58;;;;;;;18.07;6.77;;;;;;;;;;4997626;28;20395;-61
2024/01/05 00:18:23;;;;;;;17.20;7.50;;;;;;;;;;4991371;28;20403;-61
2024/01/05 00:20:49;;;;;;;20.13;7.30;;;;;;;;;;4990941;28;20999;-61
2024/01/05 00:23:14;;;;;;;17.20;7.40;;;;;;;;;;4996477;28;20455;-61
2024/01/05 00:25:39;;;;;;;18.13;7.63;;;;;;;;;;4999753;28;20824;-61
2024/01/05 00:28:05;;;;;;;18.00;7.37;;;;;;;;;;4998405;28;20400;-61
2024/01/05 00:30:30;;;;;;;16.67;7.00;;;;;;;;;;5018507;28;20395;-61
2024/01/05 00:32:55;;;;;;;20.45;8.32;;;;;;;;;;5018556;28;20414;-60
2024/01/05 00:35:20;;;;;;;20.37;9.17;;;;;;;;;;5017370;28;20387;-60
2024/01/05 00:37:46;;;;;;;17.00;7.70;;;;;;;;;;5015141;28;20478;-60
2024/01/05 00:40:11;;;;;;;18.23;7.93;;;;;;;;;;5010622;28;20921;-60
2024/01/05 00:42:37;;;;;;;19.07;7.97;;;;;;;;;;5010270;28;20764;-60
2024/01/05 00:45:02;;;;;;;17.75;7.45;;;;;;;;;;5002040;28;20404;-60
2024/01/05 00:47:27;;;;;;;16.33;7.23;;;;;;;;;;4999078;28;20943;-60
2024/01/05 00:49:53;;;;;;;16.47;6.63;;;;;;;;;;4993315;28;20412;-60
2024/01/05 00:52:18;;;;;;;19.03;8.10;;;;;;;;;;4998503;28;20480;-60
2024/01/05 00:54:43;;;;;;;15.75;6.55;;;;;;;;;;5000698;28;20415;-60
2024/01/05 00:57:09;;;;;;;17.43;7.27;;;;;;;;;;5002265;28;20864;-60
2024/01/05 00:59:34;;;;;;;14.37;6.10;;;;;;;;;;5001910;28;20408;-60
2024/01/05 01:01:59;;;;;;;13.60;5.67;;;;;;;;;;4995379;28;21103;-60
2024/01/05 01:04:24;;;;;;;15.05;6.00;;;;;;;;;;4994115;28;20396;-60
2024/01/05 01:06:50;;;;;;;15.97;6.00;;;;;;;;;;4996027;28;20422;-60
2024/01/05 01:09:15;;;;;;;18.13;6.07;;;;;;;;;;5002033;28;20396;-60
2024/01/05 01:11:40;;;;;;;14.23;5.73;;;;;;;;;;5001580;28;20408;-60
2024/01/05 01:14:06;;;;;;;17.13;6.20;;;;;;;;;;5002293;28;20443;-61
2024/01/05 01:16:32;;;;;;;17.98;6.18;;;;;;;;;;5002727;28;21005;-60
2024/01/05 01:18:57;;;;;;;14.50;5.07;;;;;;;;;;5002422;28;20500;-60
2024/01/05 01:21:22;;;;;;;13.30;5.40;;;;;;;;;;5001583;28;20401;-60
2024/01/05 01:23:47;;;;;;;15.57;6.07;;;;;;;;;;4996627;28;20495;-60
2024/01/05 01:26:13;;;;;;;14.33;5.27;;;;;;;;;;4994661;28;20903;-60
2024/01/05 01:28:38;;;;;;;17.30;6.23;;;;;;;;;;4994831;28;20458;-60
2024/01/05 01:31:03;;;;;;;12.60;5.10;;;;;;;;;;4998801;28;20436;-60
2024/01/05 01:33:28;;;;;;;15.67;5.83;;;;;;;;;;5002466;28;20396;-60
2024/01/05 01:35:54;;;;;;;14.17;5.20;;;;;;;;;;5021201;28;20411;-60
2024/01/05 01:38:19;;;;;;;18.20;6.03;;;;;;;;;;5020646;28;20395;-60
2024/01/05 01:40:45;;;;;;;14.80;6.07;;;;;;;;;;5020981;28;21033;-60
2024/01/05 01:43:17;;;;;;;15.10;5.57;;;;;;;;;;5004231;28;20411;-60
2024/01/05 01:45:42;;;;;;;15.23;5.50;;;;;;;;;;4999932;28;20786;-60
2024/01/05 01:48:07;;;;;;;17.85;7.30;;;;;;;;;;4989602;28;20397;-60
2024/01/05 01:50:33;;;;;;;17.73;6.87;;;;;;;;;;4994133;28;20400;-60
2024/01/05 01:52:58;;;;;;;16.23;6.10;;;;;;;;;;4998956;28;20414;-60
2024/01/05 01:55:23;;;;;;;18.27;6.53;;;;;;;;;;5035813;28;20395;-60
2024/01/05 01:57:48;;;;;;;17.17;5.97;;;;;;;;;;5006313;28;20447;-60
2024/01/05 02:00:14;;;;;;;13.57;6.07;;;;;;;;;;4999983;28;20401;-60
2024/01/05 02:02:39;;;;;;;17.45;6.38;;;;;;;;;;5002387;28;20489;-60
2024/01/05 02:05:05;;;;;;;16.20;6.60;;;;;;;;;;5001481;28;21256;-60
2024/01/05 02:07:30;;;;;;;16.50;7.28;;;;;;;;;;4998997;28;20395;-60
2024/01/05 02:09:55;;;;;;;14.80;6.37;;;;;;;;;;4993299;28;20416;-60
2024/01/05 02:12:21;;;;;;;17.63;7.20;;;;;;;;;;4994086;28;20884;-60
2024/01/05 02:14:46;;;;;;;15.30;6.00;;;;;;;;;;4995000;28;20471;-60
2024/01/05 02:17:30;;;;;;;15.23;6.10;;;;;;;;;;5001413;28;20889;-60
2024/01/05 02:19:56;;;;;;;17.20;6.57;;;;;;;;;;5000112;28;20507;-60
2024/01/05 02:22:22;;;;;;;18.27;6.63;;;;;;;;;;5001142;28;20423;-60
2024/01/05 02:24:47;;;;;;;16.83;6.43;;;;;;;;;;5001465;28;20909;-60
2024/01/05 02:27:12;;;;;;;15.47;6.20;;;;;;;;;;5000347;28;20435;-60
2024/01/05 02:29:38;;;;;;;14.93;5.23;;;;;;;;;;5000197;28;20738;-61
2024/01/05 02:32:03;;;;;;;16.33;5.50;;;;;;;;;;4993942;28;20412;-60
2024/01/05 02:34:28;;;;;;;14.30;5.70;;;;;;;;;;4992825;28;20423;-60
2024/01/05 02:36:54;;;;;;;12.13;4.65;;;;;;;;;;4994167;28;21026;-60
2024/01/05 02:39:19;;;;;;;13.50;4.27;;;;;;;;;;5000433;28;20444;-60
2024/01/05 02:41:44;;;;;;;12.93;4.10;;;;;;;;;;4999333;28;20737;-60
2024/01/05 02:44:09;;;;;;;10.77;3.27;;;;;;;;;;5000498;28;20409;-60
2024/01/05 02:46:37;;;;;;;9.63;3.30;;;;;;;;;;5000993;28;20397;-60
2024/01/05 02:49:02;;;;;;;11.35;3.75;;;;;;;;;;5000132;28;20471;-61
2024/01/05 02:51:27;;;;;;;13.07;3.60;;;;;;;;;;5000272;28;20879;-60
2024/01/05 02:53:53;;;;;;;12.33;3.60;;;;;;;;;;4996061;28;20416;-60
2024/01/05 02:56:19;;;;;;;10.85;3.10;;;;;;;;;;4992279;28;20798;-60
2024/01/05 02:58:45;;;;;;;14.40;3.58;;;;;;;;;;4992801;28;20400;-60
2024/01/05 03:01:14;;;;;;;9.73;2.97;;;;;;;;;;4998036;28;20417;-60
2024/01/05 03:03:39;;;;;;;10.95;2.90;;;;;;;;;;5019435;28;20395;-60
2024/01/05 03:06:05;;;;;;;10.57;2.70;;;;;;;;;;5019611;28;20963;-60
2024/01/05 03:08:30;;;;;;;13.13;2.70;;;;;;;;;;5016918;28;20472;-60
2024/01/05 03:10:55;;;;;;;9.67;2.70;;;;;;;;;;4999048;28;20412;-60
2024/01/05 03:13:20;;;;;;;8.57;2.70;;;;;;;;;;5000207;28;20841;-60
2024/01/05 03:15:46;;;;;;;10.67;2.67;;;;;;;;;;4997452;28;20397;-60
2024/01/05 03:18:11;;;;;;;11.00;2.90;;;;;;;;;;4992626;28;20812;-60
2024/01/05 03:20:37;;;;;;;10.45;2.50;;;;;;;;;;4991866;28;20416;-60
2024/01/05 03:23:02;;;;;;;10.20;2.57;;;;;;;;;;4995519;28;20413;-60
2024/01/05 03:25:28;;;;;;;9.32;2.50;;;;;;;;;;4999661;28;20388;-60
2024/01/05 03:27:53;;;;;;;10.23;2.10;;;;;;;;;;4999548;28;20443;-60
2024/01/05 03:30:18;;;;;;;10.17;2.30;;;;;;;;;;4998206;28;20413;-60
2024/01/05 03:32:44;;;;;;;8.60;2.17;;;;;;;;;;5000076;28;20491;-60
2024/01/05 03:35:09;;;;;;;10.63;2.60;;;;;;;;;;4999621;28;20412;-60
2024/01/05 03:37:34;;;;;;;12.50;2.58;;;;;;;;;;4998738;28;20830;-60
2024/01/05 03:39:59;;;;;;;11.50;2.40;;;;;;;;;;4992557;28;20420;-60
2024/01/05 03:42:25;;;;;;;13.17;2.90;;;;;;;;;;4991781;28;20768;-60
2024/01/05 03:44:50;;;;;;;10.40;2.20;;;;;;;;;;4993144;28;20935;-60
2024/01/05 03:47:15;;;;;;;9.67;2.53;;;;;;;;;;4999490;28;20405;-60
2024/01/05 03:49:40;;;;;;;9.67;2.60;;;;;;;;;;4994889;28;20891;-60
2024/01/05 03:52:06;;;;;;;9.32;2.22;;;;;;;;;;4998485;28;20471;-61
2024/01/05 03:54:31;;;;;;;8.60;2.17;;;;;;;;;;4999392;28;20646;-60
2024/01/05 03:56:56;;;;;;;10.10;2.07;;;;;;;;;;4999206;28;20428;-60
2024/01/05 03:59:21;;;;;;;8.00;2.00;;;;;;;;;;4998528;28;20432;-60
2024/01/05 04:01:47;;;;;;;9.30;2.10;;;;;;;;;;4993982;28;20621;-60
2024/01/05 04:04:13;;;;;;;9.40;2.35;;;;;;;;;;4991563;28;20519;-60
2024/01/05 04:06:38;;;;;;;9.97;2.10;;;;;;;;;;5024685;28;20406;-60
2024/01/05 04:09:03;;;;;;;10.53;2.33;;;;;;;;;;5027368;28;20400;-60
2024/01/05 04:11:30;;;;;;;9.15;1.90;;;;;;;;;;5027787;28;20852;-60
2024/01/05 04:13:56;;;;;;;9.70;2.38;;;;;;;;;;5027028;28;20956;-60
2024/01/05 04:16:21;;;;;;;9.50;2.20;;;;;;;;;;5025233;28;20419;-60
2024/01/05 04:18:46;;;;;;;11.33;2.20;;;;;;;;;;5028205;28;20449;-60
2024/01/05 04:21:13;;;;;;;8.03;1.90;;;;;;;;;;5025855;28;20423;-60
2024/01/05 04:23:39;;;;;;;12.82;2.30;;;;;;;;;;5027862;28;20434;-60
2024/01/05 04:26:05;;;;;;;10.20;2.33;;;;;;;;;;5027362;28;20440;-60
2024/01/05 04:28:30;;;;;;;10.68;2.70;;;;;;;;;;5027286;28;20398;-60
2024/01/05 04:30:55;;;;;;;8.93;2.10;;;;;;;;;;5014511;28;20674;-60
2024/01/05 04:33:21;;;;;;;9.20;2.20;;;;;;;;;;4993846;28;20401;-59
2024/01/05 04:35:46;;;;;;;8.40;1.87;;;;;;;;;;4998533;28;20725;-60
2024/01/05 04:38:11;;;;;;;8.87;1.97;;;;;;;;;;4998430;28;20407;-60
2024/01/05 04:40:36;;;;;;;7.80;1.90;;;;;;;;;;4998512;28;20476;-60
2024/01/05 04:43:02;;;;;;;11.03;1.80;;;;;;;;;;4999348;28;20405;-60
2024/01/05 04:45:27;;;;;;;9.43;2.00;;;;;;;;;;4999431;28;20940;-60
2024/01/05 04:47:52;;;;;;;8.97;2.17;;;;;;;;;;4993702;28;20442;-60
2024/01/05 04:50:18;;;;;;;10.70;2.27;;;;;;;;;;4991485;28;20411;-60
2024/01/05 04:52:43;;;;;;;8.57;1.80;;;;;;;;;;4991623;28;20902;-60
2024/01/05 04:55:09;;;;;;;9.37;1.93;;;;;;;;;;4990568;28;20404;-60
2024/01/05 04:57:35;;;;;;;8.38;1.92;;;;;;;;;;4998049;28;20487;-60
2024/01/05 05:00:00;;;;;;;10.00;2.00;;;;;;;;;;4998432;28;20679;-60
2024/01/05 05:02:25;;;;;;;8.93;2.00;;;;;;;;;;4997621;28;20910;-60
2024/01/05 05:04:51;;;;;;;9.25;1.80;;;;;;;;;;4999263;28;20448;-60
2024/01/05 05:07:16;;;;;;;10.37;2.00;;;;;;;;;;4998450;28;20409;-60
2024/01/05 05:09:41;;;;;;;8.20;1.97;;;;;;;;;;4997952;28;20462;-60
2024/01/05 05:12:07;;;;;;;7.00;1.70;;;;;;;;;;4994370;28;20979;-60
2024/01/05 05:14:32;;;;;;;8.77;1.90;;;;;;;;;;4991940;28;20736;-60
2024/01/05 05:16:57;;;;;;;9.32;1.92;;;;;;;;;;4990490;28;20520;-60
2024/01/05 05:19:22;;;;;;;8.13;1.70;;;;;;;;;;4995127;28;20397;-60
2024/01/05 05:21:48;;;;;;;9.03;1.80;;;;;;;;;;4998333;28;20447;-60
2024/01/05 05:24:13;;;;;;;10.90;2.10;;;;;;;;;;4997877;28;20531;-60
2024/01/05 05:26:38;;;;;;;7.80;1.80;;;;;;;;;;4999044;28;20400;-60
2024/01/05 05:29:04;;;;;;;8.33;2.00;;;;;;;;;;4998177;28;20911;-60
2024/01/05 05:31:29;;;;;;;9.23;1.90;;;;;;;;;;4997695;28;20412;-60
2024/01/05 05:33:54;;;;;;;7.97;1.90;;;;;;;;;;4996839;28;20784;-60
2024/01/05 05:36:19;;;;;;;6.97;2.00;;;;;;;;;;4991977;28;20409;-60
2024/01/05 05:38:45;;;;;;;8.37;1.70;;;;;;;;;;4990664;28;20537;-60
2024/01/05 05:41:10;;;;;;;7.20;1.83;;;;;;;;;;4991948;28;20930;-60
2024/01/05 05:43:35;;;;;;;7.53;1.90;;;;;;;;;;5000785;28;20408;-60
2024/01/05 05:46:01;;;;;;;6.70;1.90;;;;;;;;;;5001114;28;21328;-60
2024/01/05 05:48:26;;;;;;;10.53;2.00;;;;;;;;;;4997437;28;20896;-60
2024/01/05 05:50:51;;;;;;;7.67;2.40;;;;;;;;;;5000936;28;20417;-60
2024/01/05 05:53:17;;;;;;;8.98;2.30;;;;;;;;;;5001710;28;20459;-60
2024/01/05 05:55:42;;;;;;;7.37;1.67;;;;;;;;;;5002312;28;20389;-60
2024/01/05 05:58:08;;;;;;;9.90;1.80;;;;;;;;;;4995798;28;20431;-60
2024/01/05 06:00:33;;;;;;;7.47;1.80;;;;;;;;;;4993774;28;20404;-60
2024/01/05 06:02:58;;;;;;;9.17;2.00;;;;;;;;;;4994169;28;20405;-60
2024/01/05 06:05:24;;;;;;;9.60;2.13;;;;;;;;;;5000005;28;20798;-60
2024/01/05 06:07:49;;;;;;;6.50;1.80;;;;;;;;;;5001603;28;20432;-60
2024/01/05 06:10:15;;;;;;;8.13;1.90;;;;;;;;;;5000823;28;20400;-60
2024/01/05 06:12:40;;;;;;;9.90;2.30;;;;;;;;;;5001095;28;20892;-60
2024/01/05 06:15:05;;;;;;;7.37;1.53;;;;;;;;;;5001661;28;20475;-61
2024/01/05 06:17:31;;;;;;;6.50;1.40;;;;;;;;;;5001840;28;20392;-60
2024/01/05 06:19:56;;;;;;;7.10;1.60;;;;;;;;;;5015320;28;21418;-60
2024/01/05 06:22:22;;;;;;;7.20;1.73;;;;;;;;;;5000482;28;20431;-60
2024/01/05 06:24:47;;;;;;;7.93;1.60;;;;;;;;;;4994600;28;20401;-60
2024/01/05 06:27:12;;;;;;;6.70;1.53;;;;;;;;;;4997137;28;20420;-60
2024/01/05 06:29:38;;;;;;;9.63;2.00;;;;;;;;;;5000717;28;20401;-61
2024/01/05 06:32:03;;;;;;;7.73;1.70;;;;;;;;;;5001133;28;20878;-60
2024/01/05 06:34:29;;;;;;;8.70;1.90;;;;;;;;;;5001013;28;20884;-60
2024/01/05 06:36:55;;;;;;;10.93;2.00;;;;;;;;;;5000445;28;20768;-60
2024/01/05 06:39:20;;;;;;;8.73;1.77;;;;;;;;;;5018094;28;20389;-60
2024/01/05 06:41:45;;;;;;;6.47;1.60;;;;;;;;;;4997884;28;20425;-60
2024/01/05 06:44:11;;;;;;;7.37;1.60;;;;;;;;;;4993735;28;20946;-61
2024/01/05 06:46:36;;;;;;;7.67;1.60;;;;;;;;;;4993214;28;20705;-60
2024/01/05 06:49:01;;;;;;;7.13;1.80;;;;;;;;;;4989737;28;20417;-61
2024/01/05 06:51:29;;;;;;;6.40;1.40;;;;;;;;;;4999982;28;20420;-61
2024/01/05 06:53:55;;;;;;;6.22;1.40;;;;;;;;;;5000612;28;20396;-60
2024/01/05 06:56:21;;;;;;;7.43;1.48;;;;;;;;;;4999907;28;20438;-60
2024/01/05 06:58:46;;;;;;;5.83;1.47;;;;;;;;;;5000488;28;20934;-60
2024/01/05 07:01:11;;;;;;;6.43;1.53;;;;;;;;;;4999498;28;20915;-60
2024/01/05 07:03:36;;;;;;;7.00;1.50;;;;;;;;;;5034781;28;20434;-60
2024/01/05 07:06:02;;;;;;;8.03;1.80;;;;;;;;;;5002841;28;20888;-61
2024/01/05 07:08:27;;;;;;;10.10;1.90;;;;;;;;;;4992390;28;20994;-61
2024/01/05 07:10:53;;;;;;;6.83;1.73;;;;;;;;;;4992920;28;20409;-61
2024/01/05 07:13:18;;;;;;;9.43;1.87;;;;;;;;;;4998810;28;20401;-61
2024/01/05 07:15:44;;;;;;;7.87;1.50;;;;;;;;;;4999775;28;20503;-60
2024/01/05 07:18:09;;;;;;;7.60;1.48;;;;;;;;;;4999809;28;20417;-60
2024/01/05 07:20:34;;;;;;;5.53;1.67;;;;;;;;;;4999540;28;20500;-60
2024/01/05 07:23:00;;;;;;;7.18;1.50;;;;;;;;;;4999715;28;20435;-60
2024/01/05 07:25:25;;;;;;;8.17;1.67;;;;;;;;;;5000017;28;20454;-61
2024/01/05 07:27:51;;;;;;;7.43;1.48;;;;;;;;;;4996432;28;20500;-60
2024/01/05 07:30:16;;;;;;;5.33;1.50;;;;;;;;;;4991855;28;20463;-60
2024/01/05 07:32:41;;;;;;;6.93;1.67;;;;;;;;;;4993013;28;20657;-60
2024/01/05 07:35:07;;;;;;;7.67;1.67;;;;;;;;;;4996605;28;20389;-61
2024/01/05 07:37:32;;;;;;;6.43;1.40;;;;;;;;;;4999059;28;20428;-60
2024/01/05 07:39:57;;;;;;;5.77;1.10;;;;;;;;;;4999498;28;20405;-60
2024/01/05 07:42:23;;;;;;;3.37;1.13;;;;;;;;;;4999720;28;20410;-60
2024/01/05 07:44:48;;;;;;;3.47;0.90;;;;;;;;;;5022815;28;20540;-60
2024/01/05 07:47:13;;;;;;;6.03;2.17;;;;;;;;;;4999392;28;20879;-60
2024/01/05 07:49:40;;;;;;;3.22;0.95;;;;;;;;;;4993264;28;20408;-61
2024/01/05 07:52:05;;;;;;;4.65;1.17;;;;;;;;;;4983051;28;20412;-61
2024/01/05 07:54:31;;;;;;;4.70;1.10;;;;;;;;;;4992310;28;20397;-60
2024/01/05 07:56:56;;;;;;;3.33;0.80;;;;;;;;;;4994270;28;20417;-60
2024/01/05 07:59:21;;;;;;;4.03;1.00;;;;;;;;;;4997756;28;20752;-60
2024/01/05 08:01:50;;;;;;;3.80;0.90;;;;;;;;;;5016081;28;20415;-60
2024/01/05 08:04:15;;;;;;;4.25;1.00;;;;;;;;;;5026621;28;20767;-60
2024/01/05 08:06:40;;;;;;;3.67;1.00;;;;;;;;;;5024747;28;20399;-60
2024/01/05 08:09:06;;;;;;;5.25;1.20;;;;;;;;;;5027444;28;20411;-61
2024/01/05 08:11:31;;;;;;;3.07;0.77;;;;;;;;;;5026800;28;20826;-60
2024/01/05 08:13:56;;;;;;;3.73;0.80;;;;;;;;;;5028336;28;20482;-60
2024/01/05 08:16:22;;;;;;;2.93;0.60;;;;;;;;;;5025140;28;20545;-60
2024/01/05 08:18:47;;;;;;;3.25;0.68;;;;;;;;;;5027067;28;20589;-60
2024/01/05 08:21:13;;;;;;;3.30;0.60;;;;;;;;;;5026627;28;20407;-60
2024/01/05 08:23:38;;;;;;;2.20;0.43;;;;;;;;;;5027673;28;20415;-60
2024/01/05 08:26:03;;;;;;;2.57;0.50;;;;;;;;;;5036230;28;20405;-60
2024/01/05 08:28:30;;;;;;;1.52;0.40;;;;;;;;;;5028529;28;20419;-60
2024/01/05 08:30:55;;;;;;;1.63;0.40;;;;;;;;;;5026689;28;20550;-61
2024/01/05 08:33:20;;;;;;;2.43;0.50;;;;;;;;;;5026607;28;20482;-60
2024/01/05 08:35:46;;;;;;;0.50;0.30;;;;;;;;;;5027763;28;20410;-60
2024/01/05 08:38:11;;;;;;;1.13;0.40;;;;;;;;;;5027378;28;20402;-61
2024/01/05 08:40:36;;;;;;;1.07;0.40;;;;;;;;;;5026517;28;20913;-60
2024/01/05 08:43:02;;;;;;;1.73;0.47;;;;;;;;;;5027687;28;20410;-61
2024/01/05 08:45:29;;;;;;;2.00;0.40;;;;;;;;;;5027746;28;20553;-60
2024/01/05 08:47:55;;;;;;;1.35;0.38;;;;;;;;;;5022440;28;20480;-60
2024/01/05 08:50:20;;;;;;;1.00;0.40;;;;;;;;;;5026742;28;20453;-60
2024/01/05 08:52:45;;;;;;;1.40;0.50;;;;;;;;;;5027735;28;20395;-60
2024/01/05 08:55:15;;;;;;;1.15;0.35;;;;;;;;;;5026721;28;20478;-60
2024/01/05 08:57:40;;;;;;;1.63;0.40;;;;;;;;;;5026610;28;20410;-60
2024/01/05 09:00:09;;;;;;;2.60;0.40;;;;;;;;;;5026676;28;20391;-62
2024/01/05 09:02:35;;;;;;;1.33;0.40;;;;;;;;;;5025656;28;20533;-60
2024/01/05 09:05:03;;;;;;;1.42;0.30;;;;;;;;;;5026711;28;20821;-62
2024/01/05 09:07:29;;;;;;;1.80;0.30;;;;;;;;;;5027567;28;20744;-61
2024/01/05 09:09:54;;;;;;;1.80;0.40;;;;;;;;;;5026070;28;20403;-62
2024/01/05 09:12:20;;;;;;;1.13;0.47;;;;;;;;;;5027294;28;20391;-60
2024/01/05 09:14:45;;;;;;;2.37;0.40;;;;;;;;;;5027436;28;20403;-61
2024/01/05 09:17:10;;;;;;;0.70;0.30;;;;;;;;;;5030126;28;21067;-61
2024/01/05 09:19:35;;;;;;;1.77;0.40;;;;;;;;;;5031344;28;20407;-61
2024/01/05 09:22:02;;;;;;;1.33;0.30;;;;;;;;;;5027026;28;20437;-61
2024/01/05 09:24:28;;;;;;;1.80;0.40;;;;;;;;;;5031307;28;20809;-60
2024/01/05 09:26:54;;;;;;;1.35;0.30;;;;;;;;;;5029160;28;20779;-60
2024/01/05 09:29:19;;;;;;;1.60;0.33;;;;;;;;;;5030124;28;20406;-60
2024/01/05 09:31:46;;;;;;;1.77;0.40;;;;;;;;;;5030859;28;20410;-60
2024/01/05 09:34:11;;;;;;;1.42;0.55;;;;;;;;;;5029208;28;20407;-60
2024/01/05 09:36:39;;;;;;;2.00;0.40;;;;;;;;;;5030710;28;20464;-60
2024/01/05 09:39:05;;;;;;;1.80;0.40;;;;;;;;;;5030377;28;20407;-61
2024/01/05 09:41:30;;;;;;;2.08;0.55;;;;;;;;;;5029796;28;20392;-60
2024/01/05 09:43:55;;;;;;;1.63;0.43;;;;;;;;;;5027825;28;20418;-60
2024/01/05 09:46:21;;;;;;;1.70;0.40;;;;;;;;;;5028096;28;20397;-60
2024/01/05 09:48:46;;;;;;;2.20;0.40;;;;;;;;;;5026171;28;20849;-60
2024/01/05 09:51:12;;;;;;;2.27;0.70;;;;;;;;;;5028910;28;20403;-60
2024/01/05 09:53:37;;;;;;;0.90;0.50;;;;;;;;;;5030688;28;20796;-60
2024/01/05 09:56:02;;;;;;;0.60;0.40;;;;;;;;;;5029623;28;20409;-60
2024/01/05 09:58:27;;;;;;;2.92;0.60;;;;;;;;;;5030065;28;20456;-60
2024/01/05 10:00:54;;;;;;;2.43;0.60;;;;;;;;;;5028808;28;20408;-60
2024/01/05 10:03:21;;;;;;;2.38;0.50;;;;;;;;;;5044978;28;20450;-61
2024/01/05 10:05:47;;;;;;;0.90;0.30;;;;;;;;;;5028304;28;20982;-60
2024/01/05 10:08:14;;;;;;;1.13;0.50;;;;;;;;;;5029162;28;20490;-61
2024/01/05 10:10:47;;;;;;;1.40;0.30;;;;;;;;;;5029718;28;20441;-60
2024/01/05 10:13:13;;;;;;;2.00;0.50;;;;;;;;;;5029487;28;20952;-61
2024/01/05 10:15:50;;;;;;;1.63;0.50;;;;;;;;;;5029891;28;21157;-60
2024/01/05 10:18:16;;;;;;;1.52;0.45;;;;;;;;;;5016220;28;20408;-60
2024/01/05 10:20:42;;;;;;;1.55;0.40;;;;;;;;;;5029082;28;20414;-61
2024/01/05 10:23:08;;;;;;;1.25;0.40;;;;;;;;;;5028156;28;21818;-61
2024/01/05 10:25:35;;;;;;;1.47;0.40;;;;;;;;;;5028169;28;20407;-60
2024/01/05 10:28:00;;;;;;;1.50;0.40;;;;;;;;;;5028062;28;20400;-65
2024/01/05 10:30:28;;;;;;;0.60;0.33;;;;;;;;;;5027810;28;20405;-60
2024/01/05 10:32:59;;;;;;;0.88;0.50;;;;;;;;;;5028968;28;20972;-60
2024/01/05 10:35:24;;;;;;;0.80;0.30;;;;;;;;;;5028758;28;20456;-61
2024/01/05 10:37:57;;;;;;;0.70;0.50;;;;;;;;;;5029049;28;20774;-60
2024/01/05 10:40:22;;;;;;;1.20;0.40;;;;;;;;;;5058021;28;20411;-60
2024/01/05 10:42:49;;;;;;;1.93;0.40;;;;;;;;;;5028595;28;20465;-60
2024/01/05 10:45:14;;;;;;;1.27;0.60;;;;;;;;;;5028748;28;20446;-61
2024/01/05 10:47:39;;;;;;;1.30;0.60;;;;;;;;;;5028515;28;20521;-60
2024/01/05 10:50:05;;;;;;;2.20;0.63;;;;;;;;;;5022394;28;20814;-60
2024/01/05 10:52:31;;;;;;;1.55;0.60;;;;;;;;;;5024864;28;20804;-60
2024/01/05 10:54:57;;;;;;;1.83;0.80;;;;;;;;;;5024544;28;20399;-61
2024/01/05 10:57:23;;;;;;;2.73;1.17;;;;;;;;;;5027631;28;20603;-61
2024/01/05 10:59:49;;;;;;;13.55;7.30;;;;;;;;;;5029060;28;20415;-61
2024/01/05 11:02:21;;;;;;;1.70;0.63;;;;;;;;;;5028416;28;20442;-61
2024/01/05 11:04:54;;;;;;;1.40;0.50;;;;;;;;;;5029443;28;20758;-61
2024/01/05 11:07:20;;;;;;;1.33;0.70;;;;;;;;;;5027998;28;20411;-61
2024/01/05 11:09:50;;;;;;;1.80;0.60;;;;;;;;;;5027531;28;20403;-60
2024/01/05 11:12:21;;;;;;;1.95;0.75;;;;;;;;;;5027843;28;20511;-61
2024/01/05 11:14:57;;;;;;;1.40;0.70;;;;;;;;;;5028914;28;20409;-61
2024/01/05 11:17:34;;;;;;;2.15;0.70;;;;;;;;;;5044408;28;20905;-61
2024/01/05 11:20:04;;;;;;;1.90;0.90;;;;;;;;;;5009111;28;20401;-61
2024/01/05 11:22:30;;;;;;;1.27;0.65;;;;;;;;;;5021843;28;20418;-61
2024/01/05 11:24:56;;;;;;;1.75;0.75;;;;;;;;;;5027939;28;20391;-60
2024/01/05 11:27:26;;;;;;;2.43;0.77;;;;;;;;;;5027506;28;20404;-60
2024/01/05 11:29:53;;;;;;;1.65;0.70;;;;;;;;;;5027081;28;20395;-61
2024/01/05 11:32:31;;;;;;;1.80;0.70;;;;;;;;;;5028741;28;20732;-61
2024/01/05 11:34:57;;;;;;;1.70;0.80;;;;;;;;;;5028801;28;20400;-60
2024/01/05 11:37:27;;;;;;;2.87;0.90;;;;;;;;;;5027356;28;20402;-61
2024/01/05 11:39:53;;;;;;;1.30;0.70;;;;;;;;;;5026807;28;20434;-61
2024/01/05 11:42:24;;;;;;;2.55;1.10;;;;;;;;;;5028582;28;20804;-61
2024/01/05 11:44:50;;;;;;;1.90;0.80;;;;;;;;;;5028111;28;20403;-60
2024/01/05 11:47:41;;;;;;;3.38;1.75;;;;;;;;;;5036841;28;20893;-60
2024/01/05 11:50:26;;;;;;;2.40;0.93;;;;;;;;;;5036917;28;20397;-61
2024/01/05 11:53:07;;;;;;;4.30;1.70;;;;;;;;;;5028457;28;20404;-60
2024/01/05 11:55:39;;;;;;;2.20;1.10;;;;;;;;;;5028120;28;20472;-60
2024/01/05 11:58:04;;;;;;;2.45;1.05;;;;;;;;;;5027199;28;20391;-61
2024/01/05 12:00:30;;;;;;;1.27;0.85;;;;;;;;;;5027764;28;20412;-60
2024/01/05 12:03:01;;;;;;;2.33;1.02;;;;;;;;;;5028467;28;20402;-60
2024/01/05 12:05:26;;;;;;;2.22;1.00;;;;;;;;;;5027513;28;20399;-61
2024/01/05 12:07:54;;;;;;;2.50;1.20;;;;;;;;;;5027979;28;20399;-60
2024/01/05 12:10:27;;;;;;;3.40;1.00;;;;;;;;;;5027320;28;20399;-60
2024/01/05 12:12:52;;;;;;;2.42;1.08;;;;;;;;;;5027708;28;20530;-60
2024/01/05 12:15:18;;;;;;;2.13;0.97;;;;;;;;;;5028226;28;20815;-60
2024/01/05 12:17:43;;;;;;;2.13;1.00;;;;;;;;;;5027615;28;21009;-60
2024/01/05 12:20:12;;;;;;;1.42;0.90;;;;;;;;;;5025377;28;20403;-60
2024/01/05 12:22:37;;;;;;;2.43;0.90;;;;;;;;;;5027737;28;20410;-60
2024/01/05 12:25:04;;;;;;;1.97;0.90;;;;;;;;;;5026327;28;21390;-61
2024/01/05 12:27:36;;;;;;;2.40;1.00;;;;;;;;;;5028119;28;20470;-60
2024/01/05 12:30:02;;;;;;;1.87;1.00;;;;;;;;;;5027235;28;20995;-61
2024/01/05 12:32:30;;;;;;;3.17;0.93;;;;;;;;;;5027406;28;20405;-60
2024/01/05 12:34:55;;;;;;;2.50;0.90;;;;;;;;;;5028195;28;20461;-60
2024/01/05 12:37:21;;;;;;;1.97;1.03;;;;;;;;;;5027298;28;20459;-60
2024/01/05 12:39:46;;;;;;;2.30;1.00;;;;;;;;;;5026464;28;20399;-60
2024/01/05 12:42:11;;;;;;;2.07;1.00;;;;;;;;;;5027648;28;20494;-60
2024/01/05 12:44:37;;;;;;;3.20;1.10;;;;;;;;;;5026811;28;20410;-60
2024/01/05 12:47:02;;;;;;;2.22;1.00;;;;;;;;;;5027046;28;20997;-60
2024/01/05 12:49:27;;;;;;;1.97;1.00;;;;;;;;;;5023496;28;20395;-60
2024/01/05 12:51:53;;;;;;;2.30;1.00;;;;;;;;;;5029942;28;20487;-60
2024/01/05 12:54:20;;;;;;;2.60;1.00;;;;;;;;;;5030853;28;20886;-60
2024/01/05 12:56:46;;;;;;;2.03;1.00;;;;;;;;;;5031724;28;20929;-60
2024/01/05 12:59:19;;;;;;;2.67;1.00;;;;;;;;;;5031400;28;20490;-60
2024/01/05 13:01:44;;;;;;;2.23;1.10;;;;;;;;;;5030367;28;20756;-60
2024/01/05 13:04:10;;;;;;;1.98;1.00;;;;;;;;;;5031455;28;20407;-60
2024/01/05 13:06:37;;;;;;;2.85;1.00;;;;;;;;;;5031512;28;20395;-60
2024/01/05 13:09:02;;;;;;;1.80;1.00;;;;;;;;;;5030157;28;20407;-61
2024/01/05 13:11:27;;;;;;;2.63;1.00;;;;;;;;;;5031154;28;20402;-60
2024/01/05 13:13:52;;;;;;;2.10;1.00;;;;;;;;;;5031201;28;20913;-60
2024/01/05 13:16:18;;;;;;;2.63;1.23;;;;;;;;;;5030897;28;20403;-60
2024/01/05 13:18:43;;;;;;;2.03;1.07;;;;;;;;;;5030098;28;20461;-60
2024/01/05 13:21:08;;;;;;;2.73;1.20;;;;;;;;;;5029448;28;20415;-61
2024/01/05 13:23:34;;;;;;;2.90;1.30;;;;;;;;;;5031371;28;20469;-60
2024/01/05 13:26:00;;;;;;;2.53;1.08;;;;;;;;;;5031202;28;20395;-60
2024/01/05 13:28:25;;;;;;;2.17;1.10;;;;;;;;;;5030009;28;20395;-61
2024/01/05 13:30:51;;;;;;;2.05;1.02;;;;;;;;;;5030639;28;20877;-61
2024/01/05 13:33:16;;;;;;;3.03;1.40;;;;;;;;;;5031046;28;20403;-61
2024/01/05 13:35:41;;;;;;;2.57;1.10;;;;;;;;;;5030320;28;20491;-61
2024/01/05 13:38:06;;;;;;;3.30;1.30;;;;;;;;;;5030802;28;20399;-61
2024/01/05 13:40:32;;;;;;;3.30;1.50;;;;;;;;;;5030569;28;20457;-61
2024/01/05 13:42:57;;;;;;;3.70;1.53;;;;;;;;;;5030509;28;20883;-61
2024/01/05 13:45:22;;;;;;;3.60;1.30;;;;;;;;;;5030573;28;20406;-62
2024/01/05 13:47:48;;;;;;;3.00;1.10;;;;;;;;;;5031023;28;20410;-62
2024/01/05 13:50:13;;;;;;;19.20;7.95;;;;;;;;;;5024421;28;20423;-62
2024/01/05 13:52:39;;;;;;;7.33;2.70;;;;;;;;;;5030604;28;20793;-61
2024/01/05 13:55:04;;;;;;;5.60;1.97;;;;;;;;;;5030423;28;20407;-61
2024/01/05 13:57:29;;;;;;;2.70;1.50;;;;;;;;;;5029846;28;20395;-62
2024/01/05 13:59:55;;;;;;;2.47;1.30;;;;;;;;;;5029892;28;20442;-61
2024/01/05 14:02:20;;;;;;;2.30;1.50;;;;;;;;;;5029006;28;20395;-61
2024/01/05 14:04:46;;;;;;;4.13;1.30;;;;;;;;;;5029984;28;20427;-61
2024/01/05 14:07:12;;;;;;;2.83;1.33;;;;;;;;;;5029796;28;20399;-60
2024/01/05 14:09:37;;;;;;;2.93;1.60;;;;;;;;;;5030239;28;20391;-63
2024/01/05 14:12:03;;;;;;;3.10;1.40;;;;;;;;;;5029072;28;20415;-62
2024/01/05 14:14:28;;;;;;;3.38;1.70;;;;;;;;;;5030426;28;20452;-60
2024/01/05 14:16:54;;;;;;;2.87;1.70;;;;;;;;;;5045648;28;20406;-61
2024/01/05 14:19:19;;;;;;;4.53;1.90;;;;;;;;;;5033488;28;20474;-61
2024/01/05 14:21:45;;;;;;;4.80;2.00;;;;;;;;;;5027047;28;21017;-60
2024/01/05 14:24:10;;;;;;;3.23;2.00;;;;;;;;;;5029973;28;20406;-60
2024/01/05 14:26:37;;;;;;;3.58;2.20;;;;;;;;;;5029337;28;21086;-61
2024/01/05 14:29:02;;;;;;;3.20;2.00;;;;;;;;;;5029819;28;20482;-61
2024/01/05 14:31:29;;;;;;;3.55;2.28;;;;;;;;;;5026932;28;20397;-61